Time;durP1;ratioP1;P1;durP2;ratioP2;P2;SDS_P1;SDS_P2;PMS_P1;PMS_P2;Temp;Humidity;BMP_temperature;BMP_pressure;BME280_temperature;BME280_humidity;BME280_pressure;Samples;Min_cycle;Max_cycle;Signal;HPM_P1;HPM_P2
2024/01/11 00:02:04;;;;;;;68.95;47.75;;;;;;;-0.52;100.00;96519.88;5051450;28;20029;-73
2024/01/11 00:04:30;;;;;;;69.43;45.95;;;;;;;-0.50;100.00;96530.19;5055506;28;20040;-73
2024/01/11 00:06:55;;;;;;;98.22;58.72;;;;;;;-0.50;100.00;96531.03;5054462;28;20043;-73
2024/01/11 00:09:20;;;;;;;97.57;59.20;;;;;;;-0.47;100.00;96525.75;5054361;28;20627;-73
2024/01/11 00:11:46;;;;;;;94.25;60.22;;;;;;;-0.49;100.00;96524.94;5045652;28;20056;-74
2024/01/11 00:14:11;;;;;;;73.47;47.70;;;;;;;-0.50;100.00;96523.25;5049737;28;20117;-74
2024/01/11 00:16:37;;;;;;;70.00;44.88;;;;;;;-0.51;100.00;96524.16;5046880;28;20033;-73
2024/01/11 00:19:02;;;;;;;70.45;46.20;;;;;;;-0.47;100.00;96530.09;5050495;28;20090;-73
2024/01/11 00:21:27;;;;;;;72.40;44.97;;;;;;;-0.45;100.00;96523.94;5050255;28;20059;-73
2024/01/11 00:23:53;;;;;;;64.15;44.83;;;;;;;-0.44;100.00;96529.97;5053551;28;20029;-73
2024/01/11 00:26:18;;;;;;;67.43;43.70;;;;;;;-0.49;100.00;96524.13;5055477;28;20078;-73
2024/01/11 00:28:44;;;;;;;64.35;42.72;;;;;;;-0.50;100.00;96531.03;5054520;28;20108;-74
2024/01/11 00:31:10;;;;;;;73.50;45.75;;;;;;;-0.49;100.00;96526.72;5052517;28;20028;-73
2024/01/11 00:33:36;;;;;;;76.75;45.10;;;;;;;-0.45;100.00;96528.28;5053183;28;20029;-74
2024/01/11 00:36:01;;;;;;;66.45;44.72;;;;;;;-0.44;100.00;96530.84;5053192;28;20028;-76
2024/01/11 00:38:26;;;;;;;69.28;45.28;;;;;;;-0.49;100.00;96530.13;5050144;28;20412;-73
2024/01/11 00:40:52;;;;;;;73.00;46.83;;;;;;;-0.47;100.00;96533.50;5046176;28;20021;-73
2024/01/11 00:43:17;;;;;;;70.43;45.50;;;;;;;-0.46;100.00;96524.84;5048865;28;20512;-73
2024/01/11 00:45:45;;;;;;;69.78;44.75;;;;;;;-0.45;100.00;96528.28;5046310;28;20024;-73
2024/01/11 00:48:12;;;;;;;73.80;44.80;;;;;;;-0.45;100.00;96521.34;5052304;28;20043;-74
2024/01/11 00:50:37;;;;;;;76.65;46.05;;;;;;;-0.45;100.00;96517.94;5049197;28;20040;-73
2024/01/11 00:53:03;;;;;;;76.50;45.92;;;;;;;-0.41;100.00;96527.28;5052424;28;20021;-73
2024/01/11 00:55:29;;;;;;;74.07;46.72;;;;;;;-0.46;100.00;96524.84;5043933;28;20037;-73
2024/01/11 00:57:54;;;;;;;73.07;45.40;;;;;;;-0.45;100.00;96526.53;5052783;28;20028;-73
2024/01/11 01:00:19;;;;;;;76.95;48.70;;;;;;;-0.44;100.00;96524.81;5050977;28;20513;-73
2024/01/11 01:02:45;;;;;;;94.05;51.33;;;;;;;-0.44;100.00;96528.25;5051017;28;20106;-74
2024/01/11 01:05:11;;;;;;;82.95;49.85;;;;;;;-0.44;100.00;96523.06;5050707;28;20030;-73
2024/01/11 01:07:36;;;;;;;73.05;45.65;;;;;;;-0.45;100.00;96521.34;5047893;28;20069;-73
2024/01/11 01:10:02;;;;;;;73.85;46.70;;;;;;;-0.44;100.00;96530.84;5044454;28;20028;-73
2024/01/11 01:12:28;;;;;;;77.18;46.70;;;;;;;-0.42;100.00;96517.81;5048803;28;20037;-73
2024/01/11 01:14:54;;;;;;;71.28;46.72;;;;;;;-0.40;100.00;96526.38;5049027;28;20489;-73
2024/01/11 01:17:19;;;;;;;65.63;42.22;;;;;;;-0.40;100.00;96526.38;5053300;28;20085;-73
2024/01/11 01:19:44;;;;;;;66.88;42.97;;;;;;;-0.42;100.00;96524.75;5050588;28;20056;-74
2024/01/11 01:22:10;;;;;;;67.47;42.70;;;;;;;-0.46;100.00;96526.59;5049856;28;20085;-73
2024/01/11 01:24:36;;;;;;;70.60;43.75;;;;;;;-0.48;100.00;96529.22;5053473;28;20021;-73
2024/01/11 01:27:01;;;;;;;66.05;43.03;;;;;;;-0.49;100.00;96527.53;5049268;28;20025;-73
2024/01/11 01:29:27;;;;;;;70.72;43.08;;;;;;;-0.46;100.00;96527.44;5046569;28;20025;-73
2024/01/11 01:31:52;;;;;;;68.18;43.05;;;;;;;-0.45;100.00;96523.94;5049522;28;20024;-73
2024/01/11 01:34:18;;;;;;;65.60;42.40;;;;;;;-0.46;100.00;96526.59;5047621;28;20017;-73
2024/01/11 01:36:43;;;;;;;74.82;46.28;;;;;;;-0.43;100.00;96531.66;5053029;28;20029;-74
2024/01/11 01:39:09;;;;;;;69.55;43.80;;;;;;;-0.44;100.00;96524.81;5047220;28;20112;-73
2024/01/11 01:41:34;;;;;;;76.03;45.15;;;;;;;-0.46;100.00;96522.25;5047430;28;20036;-74
2024/01/11 01:43:59;;;;;;;73.80;46.03;;;;;;;-0.48;100.00;96534.41;5052595;28;20057;-74
2024/01/11 01:46:27;;;;;;;74.25;44.58;;;;;;;-0.47;100.00;96533.50;5048435;28;20041;-73
2024/01/11 01:48:54;;;;;;;71.18;42.60;;;;;;;-0.41;100.00;96535.03;5053523;28;20502;-73
2024/01/11 01:51:20;;;;;;;67.65;44.13;;;;;;;-0.44;100.00;96533.41;5054330;28;20024;-73
2024/01/11 01:53:47;;;;;;;67.82;43.33;;;;;;;-0.45;100.00;96534.28;5053590;28;20025;-73
2024/01/11 01:56:13;;;;;;;65.30;43.55;;;;;;;-0.44;100.00;96535.16;5053365;28;20021;-74
2024/01/11 01:58:38;;;;;;;70.22;45.70;;;;;;;-0.42;100.00;96538.53;5047489;28;20509;-74
2024/01/11 02:01:04;;;;;;;69.35;45.17;;;;;;;-0.39;100.00;96532.41;5052783;28;20047;-73
2024/01/11 02:03:30;;;;;;;70.68;45.80;;;;;;;-0.41;100.00;96535.03;5049339;28;20538;-74
2024/01/11 02:05:56;;;;;;;70.25;45.45;;;;;;;-0.39;100.00;96547.94;5051196;28;20052;-73
2024/01/11 02:08:23;;;;;;;70.07;46.25;;;;;;;-0.38;100.00;96544.44;5043326;28;20075;-73
2024/01/11 02:10:49;;;;;;;75.47;46.88;;;;;;;-0.36;100.00;96545.25;5054613;28;20043;-73
2024/01/11 02:13:15;;;;;;;71.05;45.08;;;;;;;-0.37;100.00;96544.38;5033985;28;20033;-74
2024/01/11 02:15:41;;;;;;;74.45;45.13;;;;;;;-0.32;100.00;96541.63;5051383;28;20064;-74
2024/01/11 02:18:06;;;;;;;71.65;44.25;;;;;;;-0.32;100.00;96542.50;5047185;28;20057;-74
2024/01/11 02:20:32;;;;;;;70.82;43.97;;;;;;;-0.37;100.00;96540.97;5047771;28;20021;-75
2024/01/11 02:23:05;;;;;;;72.63;47.03;;;;;;;-0.40;100.00;96541.06;5051742;28;20406;-74
2024/01/11 02:25:30;;;;;;;62.58;42.70;;;;;;;-0.44;100.00;96541.19;5044151;28;20060;-74
2024/01/11 02:27:55;;;;;;;66.20;43.53;;;;;;;-0.46;100.00;96540.38;5042890;28;20037;-74
2024/01/11 02:30:21;;;;;;;71.97;42.00;;;;;;;-0.46;100.00;96537.78;5049412;28;20029;-74
2024/01/11 02:32:49;;;;;;;66.13;42.08;;;;;;;-0.43;100.00;96536.84;5050999;28;20032;-74
2024/01/11 02:35:18;;;;;;;65.03;42.53;;;;;;;-0.43;100.00;96534.25;5049503;28;20030;-74
2024/01/11 02:37:45;;;;;;;69.68;42.70;;;;;;;-0.39;100.00;96537.59;5044467;28;20056;-74
2024/01/11 02:40:12;;;;;;;62.08;41.78;;;;;;;-0.38;100.00;96537.50;5045207;28;20044;-74
2024/01/11 02:42:38;;;;;;;67.75;43.95;;;;;;;-0.45;100.00;96534.28;5052379;28;20035;-74
2024/01/11 02:45:04;;;;;;;71.00;43.25;;;;;;;-0.45;100.00;96536.06;5050935;28;20017;-74
2024/01/11 02:47:29;;;;;;;72.20;41.08;;;;;;;-0.32;100.00;96533.88;5050015;28;20052;-74
2024/01/11 02:49:55;;;;;;;64.63;40.85;;;;;;;-0.37;100.00;96530.59;5049379;28;20064;-74
2024/01/11 02:52:22;;;;;;;62.72;40.08;;;;;;;-0.40;100.00;96534.13;5047979;28;20037;-74
2024/01/11 02:54:48;;;;;;;67.80;41.95;;;;;;;-0.42;100.00;96533.34;5049123;28;20112;-74
2024/01/11 02:57:13;;;;;;;61.58;38.88;;;;;;;-0.44;100.00;96523.06;5051632;28;20057;-74
2024/01/11 02:59:39;;;;;;;68.88;42.00;;;;;;;-0.44;100.00;96529.97;5044793;28;20033;-74
2024/01/11 03:02:05;;;;;;;66.07;42.05;;;;;;;-0.44;100.00;96527.38;5050898;28;20037;-74
2024/01/11 03:04:30;;;;;;;69.63;43.65;;;;;;;-0.42;100.00;96525.59;5051631;28;20029;-74
2024/01/11 03:06:56;;;;;;;68.00;41.15;;;;;;;-0.38;100.00;96528.91;5050435;28;20088;-74
2024/01/11 03:09:21;;;;;;;70.90;40.50;;;;;;;-0.42;100.00;96523.00;5050136;28;20032;-74
2024/01/11 03:11:47;;;;;;;64.63;43.05;;;;;;;-0.41;100.00;96529.88;5053116;28;20120;-74
2024/01/11 03:14:12;;;;;;;66.13;41.45;;;;;;;-0.43;100.00;96526.50;5052709;28;20052;-74
2024/01/11 03:16:39;;;;;;;60.20;39.90;;;;;;;-0.46;100.00;96527.44;5051101;28;20033;-74
2024/01/11 03:19:05;;;;;;;68.03;40.42;;;;;;;-0.47;100.00;96525.75;5043699;28;20025;-74
2024/01/11 03:21:31;;;;;;;70.97;41.00;;;;;;;-0.47;100.00;96528.31;5047232;28;20040;-74
2024/01/11 03:23:56;;;;;;;67.18;40.47;;;;;;;-0.47;100.00;96519.75;5044138;28;20033;-74
2024/01/11 03:26:22;;;;;;;57.38;38.90;;;;;;;-0.46;100.00;96517.06;5051391;28;21150;-73
2024/01/11 03:28:47;;;;;;;64.82;39.97;;;;;;;-0.41;100.00;96524.69;5049741;28;20060;-74
2024/01/11 03:31:12;;;;;;;59.63;37.90;;;;;;;-0.31;100.00;96525.22;5053577;28;20013;-74
2024/01/11 03:33:38;;;;;;;62.13;40.70;;;;;;;-0.27;100.00;96520.78;5053378;28;20481;-74
2024/01/11 03:36:10;;;;;;;62.10;38.03;;;;;;;-0.26;100.00;96528.47;5053528;28;20033;-73
2024/01/11 03:38:35;;;;;;;60.33;39.17;;;;;;;-0.29;100.00;96528.59;5046571;28;20027;-74
2024/01/11 03:41:01;;;;;;;65.25;37.55;;;;;;;-0.32;100.00;96537.31;5053303;28;20426;-74
2024/01/11 03:43:27;;;;;;;56.30;37.97;;;;;;;-0.35;100.00;96524.47;5053239;28;20043;-74
2024/01/11 03:45:52;;;;;;;62.05;40.92;;;;;;;-0.34;100.00;96530.50;5052095;28;20530;-74
2024/01/11 03:48:18;;;;;;;63.35;37.65;;;;;;;-0.37;100.00;96535.78;5050616;28;20493;-73
2024/01/11 03:50:43;;;;;;;64.55;38.78;;;;;;;-0.42;100.00;96535.94;5050117;28;20154;-74
2024/01/11 03:53:08;;;;;;;61.47;36.88;;;;;;;-0.36;100.00;96535.72;5047039;28;20489;-74
2024/01/11 03:55:34;;;;;;;58.72;37.72;;;;;;;-0.40;100.00;96544.50;5046704;28;20021;-74
2024/01/11 03:57:59;;;;;;;65.30;40.28;;;;;;;-0.41;100.00;96540.22;5045353;28;20029;-74
2024/01/11 04:00:24;;;;;;;61.28;39.33;;;;;;;-0.39;100.00;96538.41;5039520;28;20570;-74
2024/01/11 04:02:50;;;;;;;74.32;48.75;;;;;;;-0.41;100.00;96547.97;5045151;28;20037;-74
2024/01/11 04:05:15;;;;;;;71.78;42.83;;;;;;;-0.40;100.00;96547.06;5040366;28;20067;-73
2024/01/11 04:07:41;;;;;;;66.43;41.45;;;;;;;-0.43;100.00;96552.38;5046716;28;20033;-74
2024/01/11 04:10:09;;;;;;;81.90;50.80;;;;;;;-0.42;100.00;96550.63;5040597;28;20040;-74
2024/01/11 04:12:35;;;;;;;67.68;40.33;;;;;;;-0.41;100.00;96560.09;5057106;28;20620;-74
2024/01/11 04:15:01;;;;;;;70.88;46.00;;;;;;;-0.45;100.00;96549.00;5045795;28;20132;-74
2024/01/11 04:17:26;;;;;;;80.30;45.75;;;;;;;-0.45;100.00;96555.00;5057823;28;20052;-74
2024/01/11 04:19:51;;;;;;;71.32;44.05;;;;;;;-0.36;100.00;96550.41;5051540;28;20770;-74
2024/01/11 04:22:17;;;;;;;70.57;44.05;;;;;;;-0.36;100.00;96542.66;5057048;28;20028;-74
2024/01/11 04:24:43;;;;;;;67.72;40.47;;;;;;;-0.25;100.00;96548.28;5045916;28;20255;-74
2024/01/11 04:27:08;;;;;;;63.20;39.13;;;;;;;-0.30;100.00;96553.63;5045168;28;20053;-74
2024/01/11 04:29:34;;;;;;;64.82;40.03;;;;;;;-0.22;100.00;96552.50;5051719;28;20500;-74
2024/01/11 04:31:59;;;;;;;72.30;39.47;;;;;;;-0.23;100.00;96553.41;5057441;28;20025;-74
2024/01/11 04:34:25;;;;;;;68.20;37.90;;;;;;;-0.20;100.00;96551.56;5057011;28;20036;-74
2024/01/11 04:36:50;;;;;;;63.58;36.80;;;;;;;-0.24;100.00;96555.13;5057148;28;20500;-74
2024/01/11 04:39:15;;;;;;;68.47;36.67;;;;;;;-0.20;100.00;96555.88;5046336;28;20513;-74
2024/01/11 04:41:41;;;;;;;64.90;38.30;;;;;;;-0.24;100.00;96556.91;5056717;28;20551;-74
2024/01/11 04:44:06;;;;;;;59.72;37.50;;;;;;;-0.28;100.00;96557.91;5056225;28;20025;-74
2024/01/11 04:46:32;;;;;;;63.83;39.00;;;;;;;-0.34;100.00;96554.63;5049097;28;20137;-74
2024/01/11 04:48:57;;;;;;;63.63;39.20;;;;;;;-0.40;100.00;96554.00;5049489;28;20902;-74
2024/01/11 04:51:23;;;;;;;62.65;36.85;;;;;;;-0.28;100.00;96555.31;5056929;28;20036;-74
2024/01/11 04:53:48;;;;;;;56.33;33.97;;;;;;;-0.21;100.00;96556.78;5056839;28;20458;-74
2024/01/11 04:56:15;;;;;;;58.00;36.50;;;;;;;-0.31;100.00;96551.94;5055867;28;20025;-74
2024/01/11 04:58:42;;;;;;;61.45;37.33;;;;;;;-0.28;100.00;96557.91;5050671;28;20033;-74
2024/01/11 05:01:18;;;;;;;59.60;36.25;;;;;;;-0.34;100.00;96562.38;5047922;28;20033;-74
2024/01/11 05:03:44;;;;;;;;;;;;;;;-0.36;100.00;96559.00;5046173;28;20026;-75
2024/01/11 05:06:15;;;;;;;;;;;;;;;-0.41;100.00;96563.50;5056891;28;19952;-74
2024/01/11 05:08:40;;;;;;;57.45;31.75;;;;;;;-0.40;100.00;96562.59;5045201;28;19920;-74
2024/01/11 05:11:05;;;;;;;57.42;34.25;;;;;;;-0.39;100.00;96564.28;5056194;28;20017;-74
2024/01/11 05:13:31;;;;;;;53.85;35.00;;;;;;;-0.38;100.00;96562.56;5043150;28;20037;-74
2024/01/11 05:15:56;;;;;;;54.05;33.97;;;;;;;-0.38;100.00;96549.63;5054098;28;20016;-74
2024/01/11 05:18:21;;;;;;;60.13;35.22;;;;;;;-0.42;100.00;96553.22;5046326;28;20033;-74
2024/01/11 05:20:47;;;;;;;51.80;33.65;;;;;;;-0.45;100.00;96551.56;5053892;28;20071;-74
2024/01/11 05:23:12;;;;;;;55.50;34.67;;;;;;;-0.51;100.00;96554.38;5054947;28;20032;-74
2024/01/11 05:25:37;;;;;;;56.13;34.42;;;;;;;-0.48;100.00;96557.69;5054437;28;20013;-74
2024/01/11 05:28:03;;;;;;;52.03;32.15;;;;;;;-0.38;100.00;96554.78;5054498;28;20385;-74
2024/01/11 05:30:30;;;;;;;61.55;38.45;;;;;;;-0.41;100.00;96558.31;5043837;28;20057;-74
2024/01/11 05:32:55;;;;;;;72.30;43.25;;;;;;;-0.34;100.00;96557.19;5056197;28;20032;-73
2024/01/11 05:35:23;;;;;;;60.28;36.50;;;;;;;-0.40;100.00;96556.59;5055938;28;20470;-75
2024/01/11 05:37:49;;;;;;;52.75;34.55;;;;;;;-0.46;100.00;96549.88;5042654;28;20033;-75
2024/01/11 05:40:15;;;;;;;52.47;32.42;;;;;;;-0.50;100.00;96549.13;5035965;28;20077;-75
2024/01/11 05:42:40;;;;;;;55.15;33.00;;;;;;;-0.48;100.00;96549.09;5035044;28;20164;-74
2024/01/11 05:45:06;;;;;;;53.30;34.42;;;;;;;-0.48;100.00;96554.28;5046865;28;20036;-74
2024/01/11 05:47:31;;;;;;;56.10;32.78;;;;;;;-0.54;100.00;96546.72;5050353;28;20052;-75
2024/01/11 05:49:56;;;;;;;53.58;34.03;;;;;;;-0.54;100.00;96546.72;5055702;28;20123;-75
2024/01/11 05:52:22;;;;;;;48.40;31.25;;;;;;;-0.60;100.00;96538.25;5042392;28;20033;-75
2024/01/11 05:54:47;;;;;;;50.42;33.22;;;;;;;-0.56;100.00;96551.09;5048772;28;20462;-75
2024/01/11 05:57:13;;;;;;;56.40;34.35;;;;;;;-0.56;100.00;96541.59;5050179;28;20025;-74
2024/01/11 05:59:43;;;;;;;49.67;33.30;;;;;;;-0.56;100.00;96545.91;5055670;28;20055;-74
2024/01/11 06:02:09;;;;;;;47.83;31.10;;;;;;;-0.59;100.00;96550.28;5049548;28;20085;-74
2024/01/11 06:04:34;;;;;;;49.75;32.45;;;;;;;-0.61;100.00;96549.50;5050410;28;20645;-74
2024/01/11 06:06:59;;;;;;;52.75;33.25;;;;;;;-0.62;100.00;96553.00;5048669;28;20370;-74
2024/01/11 06:09:25;;;;;;;51.70;33.60;;;;;;;-0.63;100.00;96553.88;5050277;28;20163;-74
2024/01/11 06:11:50;;;;;;;53.78;33.65;;;;;;;-0.65;100.00;96555.69;5036662;28;20622;-74
2024/01/11 06:14:16;;;;;;;49.30;32.05;;;;;;;-0.64;100.00;96559.13;5055138;28;20013;-74
2024/01/11 06:16:42;;;;;;;49.20;31.92;;;;;;;-0.61;100.00;96561.59;5042142;28;20026;-75
2024/01/11 06:19:08;;;;;;;49.97;32.75;;;;;;;-0.65;100.00;96562.63;5050556;28;20037;-75
2024/01/11 06:21:34;;;;;;;48.90;31.95;;;;;;;-0.66;100.00;96561.75;5045800;28;20028;-75
2024/01/11 06:23:59;;;;;;;50.30;32.28;;;;;;;-0.62;100.00;96567.69;5054935;28;20055;-74
2024/01/11 06:26:24;;;;;;;46.78;29.83;;;;;;;-0.66;100.00;96566.09;5046118;28;20087;-75
2024/01/11 06:28:50;;;;;;;50.17;32.10;;;;;;;-0.64;100.00;96566.88;5040563;28;20021;-74
2024/01/11 06:31:15;;;;;;;53.47;34.97;;;;;;;-0.66;100.00;96566.09;5052324;28;20116;-74
2024/01/11 06:33:40;;;;;;;49.90;32.85;;;;;;;-0.65;100.00;96565.19;5054086;28;20138;-74
2024/01/11 06:36:09;;;;;;;46.10;30.98;;;;;;;-0.66;100.00;96572.09;5049710;28;20032;-74
2024/01/11 06:38:35;;;;;;;40.75;28.75;;;;;;;-0.65;100.00;96578.97;5046104;28;20052;-74
2024/01/11 06:41:00;;;;;;;47.10;29.88;;;;;;;-0.73;100.00;96576.63;5043200;28;20036;-74
2024/01/11 06:43:25;;;;;;;53.03;32.78;;;;;;;-0.63;100.00;96569.41;5052148;28;20112;-73
2024/01/11 06:45:52;;;;;;;50.13;30.52;;;;;;;-0.69;100.00;96582.56;5047518;28;20115;-72
2024/01/11 06:48:17;;;;;;;46.60;30.13;;;;;;;-0.61;100.00;96584.88;5045694;28;20309;-75
2024/01/11 06:50:42;;;;;;;48.15;29.85;;;;;;;-0.53;100.00;96588.06;5052618;28;21148;-74
2024/01/11 06:53:09;;;;;;;46.78;31.33;;;;;;;-0.60;100.00;96592.56;5027481;28;20108;-76
2024/01/11 06:55:34;;;;;;;49.95;30.88;;;;;;;-0.54;100.00;96594.13;5049650;28;20028;-70
2024/01/11 06:58:01;;;;;;;49.03;29.70;;;;;;;-0.49;100.00;96599.16;5054386;28;20037;-75
2024/01/11 07:00:27;;;;;;;51.47;30.00;;;;;;;-0.53;100.00;96594.97;5053357;28;20029;-73
2024/01/11 07:02:53;;;;;;;49.70;31.60;;;;;;;-0.44;100.00;96602.41;5051256;28;20030;-73
2024/01/11 07:05:19;;;;;;;42.85;28.10;;;;;;;-0.46;100.00;96599.88;5053612;28;20065;-72
2024/01/11 07:07:44;;;;;;;47.90;31.25;;;;;;;-0.48;100.00;96606.00;5050346;28;20035;-72
2024/01/11 07:10:10;;;;;;;44.85;29.77;;;;;;;-0.45;100.00;96606.75;5049579;28;20032;-74
2024/01/11 07:12:37;;;;;;;49.55;30.65;;;;;;;-0.44;100.00;96612.78;5048781;28;20054;-74
2024/01/11 07:15:04;;;;;;;52.40;32.80;;;;;;;-0.50;100.00;96605.22;5052984;28;20099;-74
2024/01/11 07:17:30;;;;;;;51.92;31.98;;;;;;;-0.45;100.00;96614.50;5053247;28;20074;-74
2024/01/11 07:19:55;;;;;;;56.38;36.60;;;;;;;-0.55;100.00;96614.84;5049729;28;20025;-74
2024/01/11 07:22:20;;;;;;;55.88;32.92;;;;;;;-0.47;100.00;96618.88;5054328;28;20411;-74
2024/01/11 07:24:46;;;;;;;47.85;30.80;;;;;;;-0.44;100.00;96617.94;5047906;28;20039;-74
2024/01/11 07:27:11;;;;;;;51.47;32.53;;;;;;;-0.45;100.00;96626.59;5051167;28;20051;-74
2024/01/11 07:29:37;;;;;;;44.58;31.17;;;;;;;-0.42;100.00;96625.66;5041541;28;20043;-74
2024/01/11 07:32:03;;;;;;;51.75;33.95;;;;;;;-0.55;100.00;96627.78;5054258;28;20017;-73
2024/01/11 07:34:29;;;;;;;52.72;37.15;;;;;;;-0.60;100.00;96627.97;5048621;28;20032;-73
2024/01/11 07:36:56;;;;;;;49.70;35.15;;;;;;;-0.58;100.00;96639.09;5051500;28;20060;-72
2024/01/11 07:39:22;;;;;;;58.03;37.58;;;;;;;-0.50;100.00;96644.84;5035929;28;20040;-72
2024/01/11 07:41:48;;;;;;;53.30;37.58;;;;;;;-0.52;100.00;96638.91;5051097;28;20071;-73
2024/01/11 07:44:13;;;;;;;58.13;38.65;;;;;;;-0.51;100.00;96643.16;5039270;28;20057;-74
2024/01/11 07:46:38;;;;;;;56.70;36.35;;;;;;;-0.49;100.00;96640.53;5043971;28;20017;-73
2024/01/11 07:49:04;;;;;;;48.85;34.85;;;;;;;-0.48;100.00;96642.22;5042063;28;20054;-73
2024/01/11 07:51:30;;;;;;;50.17;32.00;;;;;;;-0.52;100.00;96638.91;5055156;28;20032;-73
2024/01/11 07:53:55;;;;;;;46.60;32.42;;;;;;;-0.44;100.00;96642.09;5043222;28;20022;-73
2024/01/11 07:56:22;;;;;;;49.67;32.30;;;;;;;-0.43;100.00;96645.50;5039590;28;20028;-73
2024/01/11 07:58:47;;;;;;;44.83;31.10;;;;;;;-0.44;100.00;96644.69;5049271;28;20291;-73
2024/01/11 08:01:12;;;;;;;56.75;32.35;;;;;;;-0.49;100.00;96649.13;5047270;28;20048;-73
2024/01/11 08:03:38;;;;;;;45.30;29.13;;;;;;;-0.46;100.00;96650.78;5052034;28;20086;-73
2024/01/11 08:06:05;;;;;;;50.47;28.35;;;;;;;-0.34;100.00;96652.94;5056936;28;20506;-73
2024/01/11 08:08:30;;;;;;;47.72;30.30;;;;;;;-0.41;100.00;96642.88;5045966;28;20036;-73
2024/01/11 08:10:55;;;;;;;46.20;30.17;;;;;;;-0.48;100.00;96648.25;5055442;28;20028;-73
2024/01/11 08:13:21;;;;;;;48.35;30.85;;;;;;;-0.56;100.00;96649.38;5056097;28;20028;-73
2024/01/11 08:15:47;;;;;;;43.50;28.38;;;;;;;-0.50;100.00;96649.22;5046213;28;20492;-73
2024/01/11 08:18:13;;;;;;;45.28;30.35;;;;;;;-0.55;100.00;96646.75;5057306;28;20025;-73
2024/01/11 08:20:39;;;;;;;45.17;28.23;;;;;;;-0.60;100.00;96649.50;5045885;28;20517;-73
2024/01/11 08:23:05;;;;;;;39.25;27.80;;;;;;;-0.54;100.00;96650.22;5045363;28;20087;-73
2024/01/11 08:25:30;;;;;;;46.78;29.50;;;;;;;-0.58;100.00;96652.88;5057206;28;20078;-73
2024/01/11 08:27:55;;;;;;;42.40;28.77;;;;;;;-0.61;100.00;96652.13;5056481;28;20112;-73
2024/01/11 08:30:21;;;;;;;46.55;29.92;;;;;;;-0.59;100.00;96650.34;5052477;28;20025;-73
2024/01/11 08:32:46;;;;;;;48.03;30.58;;;;;;;-0.61;100.00;96665.91;5039831;28;20560;-73
2024/01/11 08:35:12;;;;;;;48.80;29.73;;;;;;;-0.62;100.00;96658.22;5053077;28;20032;-73
2024/01/11 08:37:38;;;;;;;48.80;29.17;;;;;;;-0.63;100.00;96657.34;5039869;28;20483;-73
2024/01/11 08:40:04;;;;;;;48.28;30.60;;;;;;;-0.62;100.00;96656.47;5044403;28;20429;-73
2024/01/11 08:42:31;;;;;;;46.17;31.85;;;;;;;-0.64;100.00;96663.41;5056154;28;20566;-73
2024/01/11 08:44:56;;;;;;;56.42;34.20;;;;;;;-0.58;100.00;96658.03;5056494;28;20493;-73
2024/01/11 08:47:21;;;;;;;49.72;31.83;;;;;;;-0.48;100.00;96662.94;5043507;28;20060;-74
2024/01/11 08:49:47;;;;;;;50.67;31.73;;;;;;;-0.47;100.00;96665.44;5056923;28;20052;-74
2024/01/11 08:52:12;;;;;;;51.58;31.63;;;;;;;-0.47;100.00;96664.63;5043633;28;20022;-73
2024/01/11 08:54:37;;;;;;;51.83;32.28;;;;;;;-0.46;100.00;96656.78;5044168;28;20021;-73
2024/01/11 08:57:03;;;;;;;50.58;30.05;;;;;;;-0.43;100.00;96655.84;5042945;28;20108;-73
2024/01/11 08:59:29;;;;;;;49.97;32.28;;;;;;;-0.40;100.00;96653.16;5050637;28;20021;-73
2024/01/11 09:01:54;;;;;;;47.38;30.35;;;;;;;-0.38;100.00;96658.31;5050799;28;20031;-73
2024/01/11 09:04:20;;;;;;;57.60;36.03;;;;;;;-0.26;100.00;96651.88;5043881;28;20067;-73
2024/01/11 09:06:45;;;;;;;52.10;32.53;;;;;;;-0.33;100.00;96657.25;5043167;28;20043;-73
2024/01/11 09:09:13;;;;;;;64.07;41.92;;;;;;;-0.32;100.00;96669.31;5056742;28;20028;-74
2024/01/11 09:11:39;;;;;;;53.25;31.58;;;;;;;-0.31;100.00;96671.00;5042444;28;20056;-73
2024/01/11 09:14:05;;;;;;;49.10;30.15;;;;;;;-0.19;100.00;96674.91;5036806;28;20020;-73
2024/01/11 09:16:31;;;;;;;50.63;32.13;;;;;;;-0.16;100.00;96681.72;5050510;28;20063;-73
2024/01/11 09:18:56;;;;;;;45.42;29.17;;;;;;;-0.08;100.00;96691.81;5049347;28;20045;-73
2024/01/11 09:21:22;;;;;;;43.42;30.00;;;;;;;-0.09;100.00;96690.97;5049803;28;20017;-73
2024/01/11 09:23:47;;;;;;;45.78;29.35;;;;;;;-0.11;100.00;96691.91;5043550;28;20025;-73
2024/01/11 09:26:13;;;;;;;49.42;30.25;;;;;;;-0.09;100.00;96697.88;5056137;28;20021;-73
2024/01/11 09:28:38;;;;;;;48.15;31.17;;;;;;;-0.11;100.00;96697.09;5056182;28;20497;-73
2024/01/11 09:31:04;;;;;;;44.22;28.80;;;;;;;-0.11;100.00;96705.72;5055487;28;20020;-73
2024/01/11 09:33:29;;;;;;;47.83;30.13;;;;;;;-0.12;100.00;96706.59;5049766;28;20100;-73
2024/01/11 09:35:56;;;;;;;46.38;29.00;;;;;;;-0.05;100.00;96705.50;5036876;28;20025;-73
2024/01/11 09:38:22;;;;;;;42.42;25.92;;;;;;;0.03;100.00;96710.44;5036427;28;20029;-73
2024/01/11 09:41:08;;;;;;;37.72;26.35;;;;;;;-0.01;100.00;96709.69;5049847;28;20020;-73
2024/01/11 09:43:35;;;;;;;40.10;25.02;;;;;;;-0.05;100.00;96713.28;5044840;28;20024;-73
2024/01/11 09:46:07;;;;;;;39.20;27.52;;;;;;;0.03;100.00;96707.84;5054100;28;20359;-73
2024/01/11 09:48:34;;;;;;;44.22;26.83;;;;;;;-0.01;100.00;96701.91;5055460;28;20079;-74
2024/01/11 09:51:03;;;;;;;60.13;33.15;;;;;;;-0.04;100.00;96704.59;5054109;28;20021;-74
2024/01/11 09:53:31;;;;;;;42.70;28.60;;;;;;;0.06;100.00;96704.28;5054772;28;20521;-73
2024/01/11 09:55:58;;;;;;;49.30;30.40;;;;;;;0.04;100.00;96711.25;5052813;28;20477;-73
2024/01/11 09:58:24;;;;;;;46.40;27.17;;;;;;;0.20;100.00;96712.44;5055233;28;20049;-73
2024/01/11 10:00:54;;;;;;;42.47;26.88;;;;;;;0.14;100.00;96702.31;5053612;28;20489;-74
2024/01/11 10:03:20;;;;;;;41.67;29.08;;;;;;;0.12;100.00;96704.94;5054898;28;20097;-73
2024/01/11 10:05:49;;;;;;;46.58;29.35;;;;;;;0.12;100.00;96698.91;5055150;28;20033;-73
2024/01/11 10:08:14;;;;;;;42.00;28.58;;;;;;;0.09;100.00;96701.59;5042942;28;20029;-73
2024/01/11 10:10:40;;;;;;;42.10;28.10;;;;;;;0.13;100.00;96688.50;5041003;28;20442;-73
2024/01/11 10:13:05;;;;;;;36.25;24.58;;;;;;;0.19;100.00;96687.44;5054781;28;20021;-73
2024/01/11 10:15:30;;;;;;;36.40;26.70;;;;;;;0.13;100.00;96685.06;5054210;28;20025;-73
2024/01/11 10:17:56;;;;;;;38.85;25.27;;;;;;;0.24;100.00;96682.09;5053507;28;20060;-72
2024/01/11 10:20:23;;;;;;;41.42;26.90;;;;;;;0.26;100.00;96688.91;5052442;28;20166;-73
2024/01/11 10:22:50;;;;;;;38.83;26.85;;;;;;;0.23;100.00;96689.00;5051804;28;20056;-73
2024/01/11 10:25:17;;;;;;;40.80;26.05;;;;;;;0.23;100.00;96681.25;5052095;28;20021;-73
2024/01/11 10:27:45;;;;;;;36.85;24.95;;;;;;;0.34;100.00;96682.63;5052570;28;20021;-73
2024/01/11 10:30:20;;;;;;;36.97;23.58;;;;;;;0.33;100.00;96692.13;5052294;28;20045;-73
2024/01/11 10:32:46;;;;;;;30.53;21.13;;;;;;;0.34;100.00;96680.88;5054520;28;20037;-73
2024/01/11 10:35:12;;;;;;;31.80;20.63;;;;;;;0.34;100.00;96680.03;5052354;28;20412;-72
2024/01/11 10:37:41;;;;;;;32.05;20.90;;;;;;;0.33;100.00;96673.13;5054068;28;20108;-72
2024/01/11 10:40:12;;;;;;;34.42;21.85;;;;;;;0.35;100.00;96673.94;5043243;28;20017;-73
2024/01/11 10:42:49;;;;;;;37.08;23.42;;;;;;;0.31;100.00;96674.94;5054073;28;20047;-72
2024/01/11 10:45:19;;;;;;;34.53;21.20;;;;;;;0.33;100.00;96670.53;5035562;28;20072;-72
2024/01/11 10:47:54;;;;;;;30.88;21.55;;;;;;;0.40;100.00;96672.03;5036519;28;20053;-72
2024/01/11 10:50:22;;;;;;;31.27;20.33;;;;;;;0.38;100.00;96679.03;5035572;28;20022;-72
2024/01/11 10:53:11;;;;;;;31.85;21.05;;;;;;;0.38;100.00;96679.84;5052528;28;20025;-72
2024/01/11 10:55:38;;;;;;;30.70;21.20;;;;;;;0.35;100.00;96685.16;5054290;28;20032;-72
2024/01/11 10:58:04;;;;;;;32.50;21.60;;;;;;;0.40;100.00;96682.41;5054678;28;20096;-72
2024/01/11 11:00:31;;;;;;;32.03;21.23;;;;;;;0.34;100.00;96674.84;5053779;28;20486;-72
2024/01/11 11:02:59;;;;;;;28.70;20.88;;;;;;;0.36;100.00;96675.63;5047823;28;20038;-72
2024/01/11 11:05:26;;;;;;;31.20;19.63;;;;;;;0.28;100.00;96675.91;5037847;28;20056;-72
2024/01/11 11:07:54;;;;;;;29.10;19.70;;;;;;;0.45;100.00;96666.69;5043757;28;20037;-72